CCA1836 ZSPD-ZBAA
Flight info
| Callsign | CCA1836 |
|---|---|
| Flight time | 1h 49m |
| Altitude | 38100 |
| Route | PIK81D/17L PIKAS G330 PIMOL A593 DALIM W157 BEKDO/K0893S1250 W157 AVBOX AVBOX6J |
| Aircraft | A359/H-SDE2E3GHIJ3J4J5LM1ORWXY/LB1D1 |
Departure
| Time | 2026-05-04 15:10 |
|---|---|
| Airport | Shanghai Pudong International Airport (ZSPD) |
Arrival
| Time | 2026-05-04 16:59 |
|---|---|
| Airport | Beijing Capital International Airport (ZBAA) |
| Time | Latitude | Longitude | Altitude | Speed | Heading |
|---|---|---|---|---|---|
| 2026-05-04 14:52 | 31.14607 | 121.79850 | 26 ft | 0 kts | 71° |
| 2026-05-04 14:55 | 31.14607 | 121.79848 | 26 ft | 1 kts | 72° |
| 2026-05-04 14:55 | 31.14602 | 121.79832 | 26 ft | 2 kts | 71° |
| 2026-05-04 14:55 | 31.14597 | 121.79815 | 26 ft | 2 kts | 71° |
| 2026-05-04 14:56 | 31.14594 | 121.79804 | 26 ft | 2 kts | 70° |
| 2026-05-04 14:56 | 31.14588 | 121.79789 | 26 ft | 2 kts | 52° |
| 2026-05-04 14:56 | 31.14578 | 121.79777 | 26 ft | 2 kts | 38° |
| 2026-05-04 14:56 | 31.14565 | 121.79768 | 26 ft | 2 kts | 24° |
| 2026-05-04 14:57 | 31.14551 | 121.79761 | 26 ft | 2 kts | 11° |
| 2026-05-04 14:57 | 31.14537 | 121.79760 | 26 ft | 2 kts | 356° |
| 2026-05-04 14:57 | 31.14523 | 121.79763 | 26 ft | 1 kts | 343° |
| 2026-05-04 14:57 | 31.14517 | 121.79765 | 26 ft | 0 kts | 340° |
| 2026-05-04 15:01 | 31.14527 | 121.79761 | 26 ft | 2 kts | 338° |
| 2026-05-04 15:01 | 31.14545 | 121.79752 | 26 ft | 3 kts | 337° |
| 2026-05-04 15:01 | 31.14578 | 121.79731 | 26 ft | 7 kts | 323° |
| 2026-05-04 15:01 | 31.14596 | 121.79671 | 26 ft | 9 kts | 259° |
| 2026-05-04 15:02 | 31.14575 | 121.79597 | 26 ft | 9 kts | 242° |
| 2026-05-04 15:02 | 31.14569 | 121.79525 | 26 ft | 9 kts | 298° |
| 2026-05-04 15:02 | 31.14629 | 121.79489 | 26 ft | 10 kts | 342° |
| 2026-05-04 15:02 | 31.14707 | 121.79461 | 26 ft | 12 kts | 343° |
| 2026-05-04 15:03 | 31.14790 | 121.79430 | 26 ft | 11 kts | 341° |
| 2026-05-04 15:03 | 31.14875 | 121.79397 | 26 ft | 13 kts | 341° |
| 2026-05-04 15:03 | 31.14966 | 121.79359 | 26 ft | 14 kts | 339° |
| 2026-05-04 15:03 | 31.15060 | 121.79321 | 26 ft | 15 kts | 342° |
| 2026-05-04 15:04 | 31.15165 | 121.79283 | 26 ft | 16 kts | 343° |
| 2026-05-04 15:04 | 31.15281 | 121.79242 | 26 ft | 16 kts | 335° |
| 2026-05-04 15:04 | 31.15363 | 121.79201 | 26 ft | 11 kts | 349° |
| 2026-05-04 15:04 | 31.15445 | 121.79177 | 26 ft | 12 kts | 346° |
| 2026-05-04 15:05 | 31.15529 | 121.79150 | 26 ft | 12 kts | 343° |
| 2026-05-04 15:05 | 31.15618 | 121.79118 | 26 ft | 14 kts | 342° |
| 2026-05-04 15:05 | 31.15717 | 121.79082 | 26 ft | 15 kts | 342° |
| 2026-05-04 15:05 | 31.15824 | 121.79035 | 26 ft | 16 kts | 341° |
| 2026-05-04 15:06 | 31.15910 | 121.79001 | 26 ft | 12 kts | 339° |
| 2026-05-04 15:06 | 31.15981 | 121.78970 | 26 ft | 11 kts | 343° |
| 2026-05-04 15:06 | 31.16061 | 121.78943 | 26 ft | 12 kts | 344° |
| 2026-05-04 15:07 | 31.16183 | 121.78843 | 26 ft | 10 kts | 274° |
| 2026-05-04 15:07 | 31.16162 | 121.78769 | 26 ft | 5 kts | 245° |
| 2026-05-04 15:07 | 31.16146 | 121.78724 | 26 ft | 2 kts | 251° |
| 2026-05-04 15:07 | 31.16145 | 121.78722 | 26 ft | 0 kts | 251° |
| 2026-05-04 15:08 | 31.16145 | 121.78721 | 26 ft | 0 kts | 251° |
| 2026-05-04 15:08 | 31.16137 | 121.78695 | 26 ft | 8 kts | 251° |
| 2026-05-04 15:08 | 31.16113 | 121.78646 | 26 ft | 5 kts | 227° |
| 2026-05-04 15:08 | 31.16080 | 121.78619 | 26 ft | 5 kts | 192° |
| 2026-05-04 15:09 | 31.16055 | 121.78622 | 26 ft | 0 kts | 162° |
| 2026-05-04 15:09 | 31.15946 | 121.78663 | 26 ft | 50 kts | 163° |
| 2026-05-04 15:09 | 31.15365 | 121.78884 | 27 ft | 122 kts | 162° |
| 2026-05-04 15:10 | 31.13239 | 121.79700 | 853 ft | 172 kts | 159° |
| 2026-05-04 15:10 | 31.12079 | 121.80225 | 1371 ft | 192 kts | 160° |
| 2026-05-04 15:10 | 31.09141 | 121.81287 | 1746 ft | 241 kts | 167° |
| 2026-05-04 15:11 | 31.07479 | 121.81720 | 1901 ft | 244 kts | 167° |
| 2026-05-04 15:11 | 31.05820 | 121.82167 | 2068 ft | 246 kts | 166° |
| 2026-05-04 15:11 | 31.04105 | 121.82697 | 2520 ft | 258 kts | 165° |
| 2026-05-04 15:11 | 31.02370 | 121.83198 | 2817 ft | 255 kts | 175° |
| 2026-05-04 15:12 | 31.00623 | 121.82952 | 2974 ft | 256 kts | 201° |
| 2026-05-04 15:12 | 30.99167 | 121.81791 | 2977 ft | 255 kts | 229° |
| 2026-05-04 15:12 | 30.98314 | 121.79986 | 2992 ft | 257 kts | 251° |
| 2026-05-04 15:12 | 30.97784 | 121.77993 | 2995 ft | 259 kts | 252° |
| 2026-05-04 15:13 | 30.97264 | 121.76014 | 2993 ft | 258 kts | 252° |
| 2026-05-04 15:13 | 30.96724 | 121.73990 | 2993 ft | 258 kts | 252° |
| 2026-05-04 15:13 | 30.96367 | 121.71967 | 2988 ft | 258 kts | 266° |
| 2026-05-04 15:13 | 30.96512 | 121.69862 | 2991 ft | 259 kts | 279° |
| 2026-05-04 15:14 | 30.96887 | 121.67800 | 3115 ft | 266 kts | 282° |
| 2026-05-04 15:14 | 30.97296 | 121.65691 | 3884 ft | 270 kts | 282° |
| 2026-05-04 15:14 | 30.97696 | 121.63595 | 4974 ft | 266 kts | 283° |
| 2026-05-04 15:14 | 30.98087 | 121.61522 | 5943 ft | 267 kts | 284° |
| 2026-05-04 15:15 | 30.98478 | 121.59428 | 6880 ft | 268 kts | 284° |
| 2026-05-04 15:15 | 30.98874 | 121.57304 | 7749 ft | 271 kts | 284° |
| 2026-05-04 15:15 | 30.99268 | 121.55180 | 8599 ft | 274 kts | 284° |
| 2026-05-04 15:16 | 31.00075 | 121.50801 | 10246 ft | 282 kts | 284° |
| 2026-05-04 15:16 | 31.00350 | 121.49311 | 10730 ft | 287 kts | 284° |
| 2026-05-04 15:16 | 31.01241 | 121.44522 | 11642 ft | 319 kts | 284° |
| 2026-05-04 15:17 | 31.02756 | 121.36315 | 13844 ft | 336 kts | 282° |
| 2026-05-04 15:17 | 31.03243 | 121.33642 | 14613 ft | 339 kts | 282° |
| 2026-05-04 15:18 | 31.03726 | 121.30975 | 15337 ft | 341 kts | 282° |
| 2026-05-04 15:18 | 31.03893 | 121.30048 | 15587 ft | 342 kts | 282° |
| 2026-05-04 15:19 | 31.06449 | 121.17178 | 18943 ft | 354 kts | 295° |
| 2026-05-04 15:19 | 31.09950 | 121.13170 | 20271 ft | 370 kts | 330° |
| 2026-05-04 15:20 | 31.12457 | 121.12336 | 20873 ft | 384 kts | 348° |
| 2026-05-04 15:20 | 31.15137 | 121.12147 | 21498 ft | 388 kts | 352° |
| 2026-05-04 15:21 | 31.23722 | 121.11683 | 23180 ft | 401 kts | 351° |
| 2026-05-04 15:21 | 31.26531 | 121.11524 | 23729 ft | 404 kts | 351° |
| 2026-05-04 15:21 | 31.32192 | 121.11200 | 24720 ft | 412 kts | 351° |
| 2026-05-04 15:22 | 31.35068 | 121.11111 | 25214 ft | 418 kts | 354° |
| 2026-05-04 15:22 | 31.38010 | 121.11214 | 25718 ft | 423 kts | 356° |
| 2026-05-04 15:22 | 31.43872 | 121.11292 | 26628 ft | 420 kts | 346° |
| 2026-05-04 15:23 | 31.46740 | 121.10607 | 27089 ft | 414 kts | 336° |
| 2026-05-04 15:23 | 31.49401 | 121.09431 | 27511 ft | 411 kts | 330° |
| 2026-05-04 15:23 | 31.52032 | 121.08051 | 27927 ft | 413 kts | 329° |
| 2026-05-04 15:23 | 31.54629 | 121.06654 | 28290 ft | 416 kts | 328° |
| 2026-05-04 15:24 | 31.59932 | 121.03803 | 29072 ft | 421 kts | 329° |
| 2026-05-04 15:24 | 31.65283 | 121.00943 | 29778 ft | 426 kts | 329° |
| 2026-05-04 15:25 | 31.67998 | 120.99493 | 30114 ft | 428 kts | 329° |
| 2026-05-04 15:25 | 31.70708 | 120.98046 | 30421 ft | 430 kts | 328° |
| 2026-05-04 15:25 | 31.73438 | 120.96587 | 30713 ft | 432 kts | 328° |
| 2026-05-04 15:26 | 31.78925 | 120.93657 | 31324 ft | 434 kts | 328° |
| 2026-05-04 15:26 | 31.80764 | 120.92673 | 31502 ft | 435 kts | 328° |
| 2026-05-04 15:28 | 32.00977 | 120.81819 | 33216 ft | 448 kts | 328° |
| 2026-05-04 15:28 | 32.03821 | 120.80288 | 33403 ft | 450 kts | 328° |
| 2026-05-04 15:30 | 32.17408 | 120.62208 | 34096 ft | 437 kts | 281° |
| 2026-05-04 15:31 | 32.19185 | 120.43704 | 34408 ft | 447 kts | 274° |
| 2026-05-04 15:31 | 32.19484 | 120.40022 | 34468 ft | 448 kts | 274° |
| 2026-05-04 15:32 | 32.20370 | 120.29085 | 34867 ft | 447 kts | 274° |
| 2026-05-04 15:32 | 32.20975 | 120.21793 | 35181 ft | 446 kts | 274° |
| 2026-05-04 15:33 | 32.21570 | 120.14555 | 35491 ft | 446 kts | 274° |
| 2026-05-04 15:34 | 32.22448 | 120.03642 | 35932 ft | 446 kts | 274° |
| 2026-05-04 15:34 | 32.22735 | 120.00005 | 36105 ft | 446 kts | 274° |
| 2026-05-04 15:34 | 32.23315 | 119.92711 | 36441 ft | 445 kts | 274° |
| 2026-05-04 15:35 | 32.24270 | 119.85531 | 36660 ft | 447 kts | 283° |
| 2026-05-04 15:35 | 32.25262 | 119.82035 | 36799 ft | 450 kts | 288° |
| 2026-05-04 15:35 | 32.26566 | 119.78721 | 36930 ft | 452 kts | 294° |
| 2026-05-04 15:36 | 32.30188 | 119.72552 | 37147 ft | 462 kts | 306° |
| 2026-05-04 15:36 | 32.33254 | 119.69034 | 37248 ft | 470 kts | 314° |
| 2026-05-04 15:37 | 32.40224 | 119.62877 | 37524 ft | 474 kts | 318° |
| 2026-05-04 15:37 | 32.45570 | 119.58315 | 37716 ft | 473 kts | 318° |
| 2026-05-04 15:38 | 32.48233 | 119.56042 | 37820 ft | 473 kts | 318° |
| 2026-05-04 15:38 | 32.50912 | 119.53747 | 37927 ft | 473 kts | 317° |
| 2026-05-04 15:38 | 32.53552 | 119.51475 | 38033 ft | 472 kts | 317° |
| 2026-05-04 15:38 | 32.56231 | 119.49163 | 38122 ft | 472 kts | 317° |
| 2026-05-04 15:39 | 32.61546 | 119.44567 | 38138 ft | 475 kts | 317° |
| 2026-05-04 15:40 | 32.69523 | 119.37646 | 38143 ft | 473 kts | 318° |
| 2026-05-04 15:40 | 32.74834 | 119.33021 | 38149 ft | 474 kts | 317° |
| 2026-05-04 15:41 | 32.80122 | 119.28387 | 38151 ft | 475 kts | 317° |
| 2026-05-04 15:41 | 32.85454 | 119.23725 | 38144 ft | 475 kts | 317° |
| 2026-05-04 15:42 | 32.90762 | 119.19083 | 38146 ft | 476 kts | 318° |
| 2026-05-04 15:42 | 32.96097 | 119.14436 | 38142 ft | 476 kts | 318° |
| 2026-05-04 15:43 | 33.01465 | 119.09827 | 38147 ft | 476 kts | 319° |
| 2026-05-04 15:43 | 33.06830 | 119.05210 | 38144 ft | 476 kts | 319° |
| 2026-05-04 15:44 | 33.12194 | 119.00584 | 38148 ft | 476 kts | 319° |
| 2026-05-04 15:44 | 33.17555 | 118.95964 | 38146 ft | 475 kts | 319° |
| 2026-05-04 15:45 | 33.22893 | 118.91332 | 38149 ft | 474 kts | 319° |
| 2026-05-04 15:45 | 33.28215 | 118.86675 | 38139 ft | 473 kts | 319° |
| 2026-05-04 15:46 | 33.33537 | 118.82056 | 38137 ft | 473 kts | 319° |
| 2026-05-04 15:46 | 33.38865 | 118.77451 | 38144 ft | 473 kts | 319° |
| 2026-05-04 15:47 | 33.44163 | 118.72846 | 38131 ft | 473 kts | 319° |
| 2026-05-04 15:47 | 33.49472 | 118.68243 | 38134 ft | 474 kts | 320° |
| 2026-05-04 15:48 | 33.54810 | 118.63639 | 38134 ft | 474 kts | 320° |
| 2026-05-04 15:48 | 33.62833 | 118.56680 | 38129 ft | 473 kts | 320° |
| 2026-05-04 15:49 | 33.68137 | 118.52065 | 38117 ft | 473 kts | 320° |
| 2026-05-04 15:49 | 33.73458 | 118.47424 | 38122 ft | 473 kts | 320° |
| 2026-05-04 15:50 | 33.78780 | 118.42773 | 38127 ft | 473 kts | 320° |
| 2026-05-04 15:50 | 33.84101 | 118.38113 | 38110 ft | 474 kts | 320° |
| 2026-05-04 15:51 | 33.89431 | 118.33427 | 38119 ft | 474 kts | 320° |
| 2026-05-04 15:51 | 33.94747 | 118.28728 | 38114 ft | 474 kts | 320° |
| 2026-05-04 15:52 | 34.00071 | 118.24063 | 38099 ft | 474 kts | 320° |
| 2026-05-04 15:52 | 34.05395 | 118.19437 | 38106 ft | 474 kts | 320° |
| 2026-05-04 15:53 | 34.10715 | 118.14801 | 38108 ft | 473 kts | 320° |
| 2026-05-04 15:53 | 34.16067 | 118.10165 | 38104 ft | 473 kts | 320° |
| 2026-05-04 15:54 | 34.21480 | 118.05643 | 38106 ft | 476 kts | 324° |
| 2026-05-04 15:54 | 34.27265 | 118.01653 | 38100 ft | 480 kts | 329° |
| 2026-05-04 15:55 | 34.33343 | 117.98321 | 38096 ft | 483 kts | 334° |
| 2026-05-04 15:55 | 34.39697 | 117.95666 | 38103 ft | 486 kts | 339° |
| 2026-05-04 15:56 | 34.46206 | 117.93317 | 38101 ft | 486 kts | 339° |
| 2026-05-04 15:56 | 34.52708 | 117.90997 | 38108 ft | 487 kts | 339° |
| 2026-05-04 15:57 | 34.59179 | 117.88682 | 38100 ft | 487 kts | 339° |
| 2026-05-04 15:57 | 34.65658 | 117.86357 | 38099 ft | 487 kts | 339° |
| 2026-05-04 15:58 | 34.72194 | 117.84003 | 38097 ft | 487 kts | 340° |
| 2026-05-04 15:58 | 34.78688 | 117.81658 | 38099 ft | 487 kts | 340° |
| 2026-05-04 15:59 | 34.85167 | 117.79309 | 38097 ft | 487 kts | 339° |
| 2026-05-04 15:59 | 34.91646 | 117.76945 | 38090 ft | 488 kts | 340° |
| 2026-05-04 16:00 | 34.98128 | 117.74570 | 38093 ft | 488 kts | 340° |
| 2026-05-04 16:00 | 35.04619 | 117.72186 | 38092 ft | 487 kts | 340° |
| 2026-05-04 16:01 | 35.11135 | 117.69805 | 38089 ft | 487 kts | 340° |
| 2026-05-04 16:01 | 35.17603 | 117.67461 | 38089 ft | 487 kts | 340° |
| 2026-05-04 16:02 | 35.24112 | 117.65084 | 38087 ft | 486 kts | 340° |
| 2026-05-04 16:03 | 35.33835 | 117.61507 | 38091 ft | 486 kts | 340° |
| 2026-05-04 16:03 | 35.40291 | 117.59125 | 38083 ft | 485 kts | 340° |
| 2026-05-04 16:04 | 35.46740 | 117.56740 | 38086 ft | 484 kts | 340° |
| 2026-05-04 16:04 | 35.56403 | 117.53155 | 38082 ft | 484 kts | 340° |
| 2026-05-04 16:05 | 35.62829 | 117.50768 | 38082 ft | 484 kts | 340° |
| 2026-05-04 16:06 | 35.72465 | 117.47179 | 38079 ft | 483 kts | 340° |
| 2026-05-04 16:07 | 35.85316 | 117.42374 | 38082 ft | 482 kts | 340° |
| 2026-05-04 16:08 | 35.98123 | 117.37558 | 38073 ft | 482 kts | 340° |
| 2026-05-04 16:09 | 36.14198 | 117.31597 | 38084 ft | 481 kts | 340° |
| 2026-05-04 16:10 | 36.26953 | 117.26865 | 38079 ft | 480 kts | 340° |
| 2026-05-04 16:11 | 36.39711 | 117.22086 | 38055 ft | 478 kts | 339° |
| 2026-05-04 16:12 | 36.58131 | 117.12877 | 38049 ft | 475 kts | 335° |
| 2026-05-04 16:13 | 36.70302 | 117.06520 | 38034 ft | 474 kts | 335° |
| 2026-05-04 16:14 | 36.82473 | 117.00145 | 38011 ft | 476 kts | 335° |
| 2026-05-04 16:16 | 36.97693 | 116.92142 | 38003 ft | 475 kts | 335° |
| 2026-05-04 16:17 | 37.12880 | 116.84115 | 38012 ft | 474 kts | 335° |
| 2026-05-04 16:18 | 37.25156 | 116.78180 | 37999 ft | 475 kts | 341° |
| 2026-05-04 16:19 | 37.40971 | 116.72207 | 37994 ft | 475 kts | 341° |
| 2026-05-04 16:20 | 37.50338 | 116.68657 | 37244 ft | 464 kts | 341° |
| 2026-05-04 16:20 | 37.56492 | 116.66313 | 35980 ft | 460 kts | 342° |
| 2026-05-04 16:21 | 37.65651 | 116.62814 | 34158 ft | 462 kts | 343° |
| 2026-05-04 16:22 | 37.71830 | 116.60455 | 32543 ft | 464 kts | 343° |
| 2026-05-04 16:22 | 37.80926 | 116.56971 | 31079 ft | 449 kts | 343° |
| 2026-05-04 16:23 | 37.87811 | 116.54320 | 30051 ft | 437 kts | 343° |
| 2026-05-04 16:24 | 38.00095 | 116.48023 | 28119 ft | 418 kts | 330° |
| 2026-05-04 16:25 | 38.04834 | 116.43893 | 27282 ft | 410 kts | 325° |
| 2026-05-04 16:26 | 38.13903 | 116.35545 | 25641 ft | 396 kts | 325° |
| 2026-05-04 16:26 | 38.20543 | 116.29418 | 24419 ft | 387 kts | 324° |
| 2026-05-04 16:27 | 38.25072 | 116.25913 | 23584 ft | 382 kts | 343° |
| 2026-05-04 16:28 | 38.32844 | 116.26763 | 22413 ft | 377 kts | 14° |
| 2026-05-04 16:28 | 38.40372 | 116.29384 | 21249 ft | 372 kts | 14° |
| 2026-05-04 16:29 | 38.50304 | 116.32883 | 19868 ft | 384 kts | 15° |
| 2026-05-04 16:30 | 38.58006 | 116.35825 | 19121 ft | 384 kts | 15° |
| 2026-05-04 16:31 | 38.63118 | 116.37768 | 18623 ft | 381 kts | 15° |
| 2026-05-04 16:31 | 38.70679 | 116.40638 | 17877 ft | 377 kts | 15° |
| 2026-05-04 16:32 | 38.78194 | 116.43493 | 17125 ft | 373 kts | 15° |
| 2026-05-04 16:33 | 38.83146 | 116.45378 | 16625 ft | 369 kts | 15° |
| 2026-05-04 16:33 | 38.88024 | 116.47236 | 16132 ft | 366 kts | 15° |
| 2026-05-04 16:34 | 38.92884 | 116.49091 | 15636 ft | 363 kts | 15° |
| 2026-05-04 16:34 | 38.95319 | 116.50021 | 15385 ft | 362 kts | 15° |
| 2026-05-04 16:35 | 39.02483 | 116.52760 | 14640 ft | 357 kts | 15° |
| 2026-05-04 16:35 | 39.09579 | 116.55480 | 13894 ft | 352 kts | 15° |
| 2026-05-04 16:36 | 39.11922 | 116.56377 | 13644 ft | 350 kts | 15° |
| 2026-05-04 16:36 | 39.16604 | 116.58169 | 13140 ft | 349 kts | 14° |
| 2026-05-04 16:37 | 39.21220 | 116.59940 | 12644 ft | 348 kts | 14° |
| 2026-05-04 16:37 | 39.23547 | 116.60837 | 12393 ft | 347 kts | 14° |
| 2026-05-04 16:37 | 39.28155 | 116.62613 | 11901 ft | 346 kts | 14° |
| 2026-05-04 16:38 | 39.32760 | 116.64390 | 11406 ft | 344 kts | 14° |
| 2026-05-04 16:39 | 39.39625 | 116.67072 | 10674 ft | 340 kts | 14° |
| 2026-05-04 16:39 | 39.44049 | 116.68803 | 10057 ft | 327 kts | 13° |
| 2026-05-04 16:40 | 39.48240 | 116.70437 | 9980 ft | 298 kts | 13° |
| 2026-05-04 16:40 | 39.52116 | 116.71939 | 9988 ft | 291 kts | 13° |
| 2026-05-04 16:41 | 39.55998 | 116.73440 | 9986 ft | 291 kts | 13° |
| 2026-05-04 16:41 | 39.61850 | 116.75595 | 9968 ft | 287 kts | 1° |
| 2026-05-04 16:42 | 39.67791 | 116.75317 | 9743 ft | 284 kts | 353° |
| 2026-05-04 16:43 | 39.71728 | 116.75088 | 9505 ft | 284 kts | 354° |
| 2026-05-04 16:43 | 39.75717 | 116.74914 | 9256 ft | 284 kts | 354° |
| 2026-05-04 16:43 | 39.77674 | 116.74837 | 9131 ft | 284 kts | 354° |
| 2026-05-04 16:44 | 39.85609 | 116.74541 | 8633 ft | 285 kts | 354° |
| 2026-05-04 16:45 | 39.89566 | 116.74397 | 8372 ft | 285 kts | 354° |
| 2026-05-04 16:46 | 39.95497 | 116.74178 | 7998 ft | 284 kts | 354° |
| 2026-05-04 16:46 | 39.99453 | 116.74033 | 7723 ft | 285 kts | 354° |
| 2026-05-04 16:47 | 40.03418 | 116.73882 | 7475 ft | 284 kts | 352° |
| 2026-05-04 16:47 | 40.07335 | 116.73346 | 7239 ft | 283 kts | 349° |
| 2026-05-04 16:48 | 40.13214 | 116.72420 | 6861 ft | 282 kts | 348° |
| 2026-05-04 16:48 | 40.15183 | 116.72115 | 6737 ft | 282 kts | 348° |
| 2026-05-04 16:49 | 40.19079 | 116.71511 | 6490 ft | 282 kts | 348° |
| 2026-05-04 16:49 | 40.22974 | 116.70908 | 6254 ft | 282 kts | 349° |
| 2026-05-04 16:50 | 40.26856 | 116.70305 | 6008 ft | 282 kts | 349° |
| 2026-05-04 16:50 | 40.30746 | 116.69696 | 5849 ft | 282 kts | 349° |
| 2026-05-04 16:51 | 40.34657 | 116.69090 | 5841 ft | 283 kts | 349° |
| 2026-05-04 16:51 | 40.36585 | 116.68665 | 5693 ft | 279 kts | 335° |
| 2026-05-04 16:51 | 40.38763 | 116.65080 | 5315 ft | 257 kts | 282° |
| 2026-05-04 16:52 | 40.39577 | 116.60619 | 4918 ft | 245 kts | 273° |
| 2026-05-04 16:52 | 40.39234 | 116.58561 | 4899 ft | 228 kts | 236° |
| 2026-05-04 16:53 | 40.36572 | 116.56732 | 4888 ft | 228 kts | 183° |
| 2026-05-04 16:53 | 40.31756 | 116.57615 | 4455 ft | 235 kts | 174° |
| 2026-05-04 16:54 | 40.30119 | 116.57922 | 4141 ft | 236 kts | 175° |
| 2026-05-04 16:55 | 40.23593 | 116.58965 | 2865 ft | 227 kts | 176° |
| 2026-05-04 16:55 | 40.20563 | 116.59444 | 2356 ft | 212 kts | 176° |
| 2026-05-04 16:56 | 40.17749 | 116.59890 | 1769 ft | 194 kts | 176° |
| 2026-05-04 16:56 | 40.14202 | 116.60455 | 1092 ft | 151 kts | 174° |
| 2026-05-04 16:57 | 40.13165 | 116.60618 | 915 ft | 147 kts | 173° |
| 2026-05-04 16:57 | 40.11148 | 116.60941 | 532 ft | 146 kts | 170° |
| 2026-05-04 16:58 | 40.08169 | 116.61420 | 145 ft | 142 kts | 168° |
| 2026-05-04 16:58 | 40.07278 | 116.61570 | 129 ft | 100 kts | 169° |
| 2026-05-04 16:59 | 40.06689 | 116.61643 | 129 ft | 33 kts | 175° |
| 2026-05-04 17:00 | 40.06256 | 116.61288 | 129 ft | 20 kts | 237° |
| 2026-05-04 17:00 | 40.06162 | 116.60999 | 129 ft | 1 kts | 242° |
| 2026-05-04 17:01 | 40.06152 | 116.60974 | 129 ft | 0 kts | 240° |
| 2026-05-04 17:01 | 40.06150 | 116.60970 | 129 ft | 0 kts | 240° |